Time;durP1;ratioP1;P1;durP2;ratioP2;P2;SDS_P1;SDS_P2;PMS_P1;PMS_P2;Temp;Humidity;BMP_temperature;BMP_pressure;BME280_temperature;BME280_humidity;BME280_pressure;Samples;Min_cycle;Max_cycle;Signal;HPM_P1;HPM_P2
2023/03/01 00:01:05;;;;;;;6.05;3.50;;;;;;;18.26;39.45;103004.88;5124797;27;20050;-67
2023/03/01 00:03:32;;;;;;;6.88;2.90;;;;;;;18.28;39.38;103010.94;5124790;27;20042;-66
2023/03/01 00:05:58;;;;;;;6.05;3.28;;;;;;;18.29;39.20;103009.13;5124367;27;20031;-67
2023/03/01 00:08:23;;;;;;;8.18;3.22;;;;;;;18.30;39.43;103010.88;5124476;27;20406;-67
2023/03/01 00:10:49;;;;;;;7.30;3.30;;;;;;;18.25;39.34;103000.53;5124895;27;20087;-66
2023/03/01 00:13:14;;;;;;;5.10;2.85;;;;;;;18.28;39.28;103015.38;5124959;27;20083;-67
2023/03/01 00:15:41;;;;;;;6.28;2.85;;;;;;;18.26;39.39;103009.28;5124513;27;20031;-68
2023/03/01 00:18:07;;;;;;;5.22;2.97;;;;;;;18.27;39.07;103011.00;5124038;27;20062;-66
2023/03/01 00:20:33;;;;;;;5.40;2.90;;;;;;;18.26;39.19;103020.72;5124687;27;20031;-68
2023/03/01 00:22:59;;;;;;;5.00;2.67;;;;;;;18.23;39.00;103014.72;5124313;27;20696;-68
2023/03/01 00:25:24;;;;;;;6.18;3.08;;;;;;;18.22;39.21;103008.59;5124495;27;20035;-67
2023/03/01 00:27:49;;;;;;;7.23;3.10;;;;;;;18.20;39.19;103010.44;5124417;27;20031;-67
2023/03/01 00:30:15;;;;;;;6.55;3.10;;;;;;;18.21;39.05;103006.03;5124283;27;20773;-68
2023/03/01 00:32:40;;;;;;;6.28;3.38;;;;;;;18.14;38.93;103000.19;5124051;27;21314;-68
2023/03/01 00:35:06;;;;;;;5.22;2.70;;;;;;;18.18;39.02;103009.66;5124168;27;20043;-68
2023/03/01 00:37:31;;;;;;;5.57;2.80;;;;;;;18.17;39.22;103010.59;5124137;27;20104;-67
2023/03/01 00:39:56;;;;;;;5.68;3.25;;;;;;;18.13;39.18;103009.91;5124547;27;20034;-67
2023/03/01 00:42:22;;;;;;;5.32;2.88;;;;;;;18.11;38.98;103002.97;5124113;27;20027;-68
2023/03/01 00:44:47;;;;;;;6.20;3.17;;;;;;;18.12;39.04;103007.31;5124352;27;20031;-68
2023/03/01 00:47:13;;;;;;;4.95;2.90;;;;;;;18.10;39.00;103012.69;5124088;27;20027;-68
2023/03/01 00:49:39;;;;;;;6.00;3.10;;;;;;;18.09;38.86;103012.75;5123741;27;20031;-69
2023/03/01 00:52:04;;;;;;;5.47;2.75;;;;;;;18.06;39.43;103005.81;5123502;27;20035;-68
2023/03/01 00:54:29;;;;;;;6.35;3.03;;;;;;;18.07;38.98;102999.63;5123895;27;20043;-68
2023/03/01 00:56:54;;;;;;;4.78;2.70;;;;;;;18.03;38.90;102998.03;5124497;27;20070;-67
2023/03/01 00:59:20;;;;;;;5.85;3.08;;;;;;;18.03;38.99;102994.56;5123411;27;20039;-67
2023/03/01 01:01:45;;;;;;;6.32;3.00;;;;;;;18.02;39.04;102990.19;5122975;27;20103;-68
2023/03/01 01:04:13;;;;;;;4.50;2.45;;;;;;;17.99;39.10;102983.31;5123405;27;20459;-67
2023/03/01 01:06:42;;;;;;;6.03;3.00;;;;;;;18.02;39.02;102988.41;5123486;27;20031;-68
2023/03/01 01:09:09;;;;;;;5.55;3.25;;;;;;;17.99;39.16;102985.94;5123559;27;20493;-67
2023/03/01 01:11:36;;;;;;;4.97;3.10;;;;;;;17.99;39.01;102985.06;5123483;27;20039;-67
2023/03/01 01:14:02;;;;;;;5.80;3.17;;;;;;;17.95;39.00;102976.44;5123359;27;20027;-67
2023/03/01 01:16:29;;;;;;;5.55;2.90;;;;;;;17.94;38.84;102977.34;5123041;27;20047;-67
2023/03/01 01:18:56;;;;;;;4.72;2.78;;;;;;;17.94;39.03;102974.72;5123485;27;20042;-67
2023/03/01 01:21:23;;;;;;;6.07;3.42;;;;;;;17.89;38.82;102974.09;5104454;27;20031;-67
2023/03/01 01:23:49;;;;;;;5.90;2.72;;;;;;;17.90;38.93;102966.09;5123536;27;20027;-66
2023/03/01 01:26:25;;;;;;;5.30;3.03;;;;;;;17.91;38.95;102973.09;5123113;27;20032;-67
2023/03/01 01:28:52;;;;;;;5.03;2.92;;;;;;;17.91;39.15;102966.94;5123288;27;20196;-66
2023/03/01 01:31:18;;;;;;;5.80;3.05;;;;;;;17.86;39.12;102953.94;5123155;27;20031;-66
2023/03/01 01:33:44;;;;;;;6.30;2.97;;;;;;;17.86;38.81;102951.31;5122820;27;20112;-67
2023/03/01 01:36:10;;;;;;;4.60;2.80;;;;;;;17.88;39.09;102946.00;5122949;27;20027;-68
2023/03/01 01:38:37;;;;;;;5.07;2.90;;;;;;;17.84;38.98;102939.13;5123084;27;20121;-67
2023/03/01 01:41:03;;;;;;;6.07;3.00;;;;;;;17.87;38.90;102941.63;5122618;27;20067;-67
2023/03/01 01:43:31;;;;;;;6.50;3.42;;;;;;;17.82;38.79;102933.09;5123256;27;20043;-67
2023/03/01 01:46:12;;;;;;;5.97;3.03;;;;;;;17.81;38.86;102934.00;5122447;27;20113;-67
2023/03/01 01:48:48;;;;;;;5.25;3.00;;;;;;;17.80;38.99;102932.28;5122683;27;20062;-67
2023/03/01 01:51:19;;;;;;;5.47;2.95;;;;;;;17.79;38.92;102930.59;5122804;27;20023;-67
2023/03/01 01:53:49;;;;;;;5.10;2.88;;;;;;;17.79;39.04;102931.44;5122810;27;20110;-67
2023/03/01 01:56:16;;;;;;;5.45;3.00;;;;;;;17.79;38.71;102934.06;5122664;27;20045;-68
2023/03/01 01:58:43;;;;;;;6.60;3.03;;;;;;;17.78;38.64;102935.00;5122107;27;20031;-68
2023/03/01 02:01:08;;;;;;;5.50;2.90;;;;;;;17.75;38.86;102928.09;5122582;27;20035;-67
2023/03/01 02:03:41;;;;;;;5.63;2.65;;;;;;;17.72;38.85;102919.44;5103998;27;20095;-68
2023/03/01 02:06:18;;;;;;;6.53;3.13;;;;;;;17.75;38.95;102924.56;5122610;27;20444;-67
2023/03/01 02:08:45;;;;;;;6.40;3.05;;;;;;;17.74;38.68;102918.47;5122100;27;20034;-67
2023/03/01 02:11:14;;;;;;;5.43;2.95;;;;;;;17.71;38.69;102915.13;5122210;27;20096;-68
2023/03/01 02:13:40;;;;;;;5.85;2.80;;;;;;;17.73;38.89;102914.09;5121102;27;20031;-67
2023/03/01 02:16:10;;;;;;;5.50;2.63;;;;;;;17.70;38.93;102914.25;5122139;27;20062;-68
2023/03/01 02:18:39;;;;;;;5.55;2.97;;;;;;;17.68;38.79;102910.84;5122366;27;20031;-68
2023/03/01 02:21:23;;;;;;;6.32;3.28;;;;;;;17.65;38.66;102905.69;5122302;27;20027;-67
2023/03/01 02:23:48;;;;;;;7.10;3.08;;;;;;;17.64;38.99;102897.84;5122269;27;20058;-67
2023/03/01 02:26:51;;;;;;;5.07;2.88;;;;;;;17.66;38.94;102898.66;5121948;27;20061;-67
2023/03/01 02:29:16;;;;;;;5.45;2.95;;;;;;;17.66;38.85;102904.78;5038263;28;20077;-68
2023/03/01 02:31:42;;;;;;;5.55;2.90;;;;;;;17.64;38.72;102898.75;5105447;27;20046;-68
2023/03/01 02:34:17;;;;;;;5.63;2.70;;;;;;;17.64;39.02;102904.00;5122050;27;20817;-68
2023/03/01 02:36:56;;;;;;;5.47;3.08;;;;;;;17.57;38.84;102895.50;5121658;27;20035;-67
2023/03/01 02:39:28;;;;;;;6.97;3.15;;;;;;;17.63;38.71;102907.56;5121981;27;20034;-67
2023/03/01 02:41:56;;;;;;;5.35;2.88;;;;;;;17.61;38.68;102903.28;5122028;27;20058;-67
2023/03/01 02:44:22;;;;;;;5.40;2.88;;;;;;;17.58;38.92;102907.78;5121664;27;20077;-67
2023/03/01 02:46:51;;;;;;;6.20;3.08;;;;;;;17.59;38.81;102913.88;5121687;27;20038;-67
2023/03/01 02:49:22;;;;;;;5.88;2.90;;;;;;;17.55;38.79;102913.19;5121782;27;20042;-67
2023/03/01 02:52:25;;;;;;;4.90;2.58;;;;;;;17.57;38.88;102911.31;5121979;28;20551;-66
2023/03/01 02:55:12;;;;;;;4.85;2.80;;;;;;;17.58;38.65;102917.47;5121878;28;20034;-66
2023/03/01 02:57:40;;;;;;;4.75;2.92;;;;;;;17.57;38.69;102918.38;5121653;27;21116;-67
2023/03/01 03:00:18;;;;;;;7.07;3.05;;;;;;;17.53;38.84;102906.25;5121634;28;20041;-67
2023/03/01 03:02:45;;;;;;;5.53;3.28;;;;;;;17.53;38.81;102907.13;5121617;27;20426;-67
2023/03/01 03:05:16;;;;;;;4.70;2.92;;;;;;;17.51;38.72;102895.78;5121762;28;20068;-67
2023/03/01 03:07:45;;;;;;;6.15;2.95;;;;;;;17.53;38.71;102896.59;5121404;28;20031;-68
2023/03/01 03:10:19;;;;;;;5.80;3.03;;;;;;;17.52;38.85;102899.28;5121469;27;20042;-68
2023/03/01 03:12:49;;;;;;;5.78;2.65;;;;;;;17.50;38.59;102898.50;5121434;28;20475;-67
2023/03/01 03:15:14;;;;;;;5.50;2.92;;;;;;;17.51;38.74;102897.56;5121617;27;20588;-67
2023/03/01 03:17:41;;;;;;;4.95;2.85;;;;;;;17.49;38.69;102905.56;5121369;27;20145;-68
2023/03/01 03:20:11;;;;;;;4.80;2.88;;;;;;;17.48;38.58;102903.88;5121629;27;20031;-67
2023/03/01 03:22:39;;;;;;;5.75;2.92;;;;;;;17.51;38.57;102903.69;5121554;28;20455;-67
2023/03/01 03:25:05;;;;;;;5.40;2.72;;;;;;;17.49;38.92;102899.44;5121666;27;20031;-67
2023/03/01 03:27:31;;;;;;;6.03;2.72;;;;;;;17.49;38.56;102895.00;5125664;27;20031;-67
2023/03/01 03:29:57;;;;;;;4.93;2.88;;;;;;;17.49;38.87;102899.44;5125084;27;20137;-66
2023/03/01 03:32:22;;;;;;;5.57;2.65;;;;;;;17.50;38.50;102906.41;5125231;27;20122;-67
2023/03/01 03:34:48;;;;;;;5.38;2.90;;;;;;;17.51;38.67;102897.56;5125357;27;20027;-67
2023/03/01 03:38:01;;;;;;;5.60;2.92;;;;;;;17.47;38.68;102891.59;5125210;27;21349;-67
2023/03/01 03:39:58;;;;;;;4.72;2.63;;;;;;;17.48;38.65;102889.81;5109594;27;20038;-66
2023/03/01 03:42:24;;;;;;;5.93;3.05;;;;;;;17.49;38.58;102895.00;5125028;27;20038;-68
2023/03/01 03:44:49;;;;;;;4.85;2.47;;;;;;;17.50;38.50;102888.81;5125240;27;20031;-67
2023/03/01 03:47:14;;;;;;;4.50;2.58;;;;;;;17.48;38.65;102884.53;5125020;27;20035;-67
2023/03/01 03:49:39;;;;;;;5.10;2.80;;;;;;;17.50;38.69;102888.81;5124891;27;20027;-68
2023/03/01 03:52:13;;;;;;;6.20;2.92;;;;;;;17.49;38.61;102892.38;5125150;27;20035;-67
2023/03/01 03:54:39;;;;;;;5.57;3.17;;;;;;;17.47;38.63;102893.38;5105987;27;20118;-68
2023/03/01 03:57:04;;;;;;;5.38;3.05;;;;;;;17.49;38.66;102891.53;5124785;27;20107;-67
2023/03/01 03:59:29;;;;;;;4.45;2.70;;;;;;;17.46;38.82;102887.25;5125372;27;20031;-67
2023/03/01 04:01:55;;;;;;;4.95;2.78;;;;;;;17.46;38.73;102889.88;5124555;27;20027;-68
2023/03/01 04:04:20;;;;;;;5.28;2.60;;;;;;;17.47;39.05;102882.84;5124699;27;20055;-67
2023/03/01 04:06:46;;;;;;;4.78;2.58;;;;;;;17.46;38.98;102876.69;5124817;27;20029;-67
2023/03/01 04:09:11;;;;;;;5.55;2.70;;;;;;;17.48;39.10;102882.78;5124927;27;20027;-68
2023/03/01 04:11:38;;;;;;;5.28;2.35;;;;;;;17.49;39.14;102875.72;5124658;27;20084;-68
2023/03/01 04:14:04;;;;;;;4.85;2.50;;;;;;;17.49;39.16;102859.91;5124741;27;20077;-68
2023/03/01 04:16:29;;;;;;;5.70;2.60;;;;;;;17.48;39.28;102863.44;5124515;27;20074;-67
2023/03/01 04:18:55;;;;;;;6.00;2.55;;;;;;;17.48;39.10;102863.44;5124524;27;20387;-68
2023/03/01 04:21:21;;;;;;;4.82;2.30;;;;;;;17.51;39.38;102869.41;5124577;27;20393;-66
2023/03/01 04:23:46;;;;;;;5.68;2.50;;;;;;;17.51;39.38;102871.22;5124361;27;20031;-66
2023/03/01 04:26:11;;;;;;;5.13;2.65;;;;;;;17.49;39.22;102870.44;5124271;27;20511;-68
2023/03/01 04:28:40;;;;;;;5.65;2.80;;;;;;;17.48;39.42;102866.09;5124203;27;20031;-67
2023/03/01 04:31:16;;;;;;;5.57;2.65;;;;;;;17.46;39.42;102854.75;5124291;27;20034;-68
2023/03/01 04:33:53;;;;;;;5.20;2.40;;;;;;;17.50;39.12;102865.09;5124346;27;20034;-67
2023/03/01 04:36:22;;;;;;;6.97;2.72;;;;;;;17.50;39.20;102856.31;5123811;27;20560;-67
2023/03/01 04:38:48;;;;;;;6.32;2.47;;;;;;;17.51;39.33;102858.03;5123631;27;20039;-66
2023/03/01 04:41:14;;;;;;;5.15;2.47;;;;;;;17.52;39.42;102857.97;5105783;27;20027;-67
2023/03/01 04:43:40;;;;;;;5.97;2.47;;;;;;;17.53;39.49;102861.44;5124328;27;20152;-66
2023/03/01 04:46:12;;;;;;;4.80;2.50;;;;;;;17.51;39.42;102858.88;5124326;27;20146;-67
2023/03/01 04:48:39;;;;;;;5.78;2.50;;;;;;;17.49;39.20;102844.91;5124196;27;20027;-67
2023/03/01 04:51:05;;;;;;;6.03;2.55;;;;;;;17.53;39.48;102849.13;5124024;27;20027;-68
2023/03/01 04:53:32;;;;;;;4.97;2.40;;;;;;;17.49;39.08;102839.66;5123780;27;20062;-67
2023/03/01 04:55:58;;;;;;;4.18;2.30;;;;;;;17.48;38.86;102829.19;5123674;27;20039;-67
2023/03/01 04:58:25;;;;;;;5.38;2.42;;;;;;;17.52;39.05;102828.13;5123789;27;20042;-67
2023/03/01 05:00:50;;;;;;;5.55;2.60;;;;;;;17.53;39.18;102832.44;5123531;27;20027;-66
2023/03/01 05:03:18;;;;;;;5.05;2.30;;;;;;;17.53;39.27;102841.22;5123526;27;20467;-68
2023/03/01 05:05:44;;;;;;;5.25;2.40;;;;;;;17.52;38.95;102838.66;5123513;27;20031;-67
2023/03/01 05:08:17;;;;;;;4.53;2.40;;;;;;;17.54;39.11;102836.81;5123369;27;20368;-67
2023/03/01 05:10:42;;;;;;;5.25;2.40;;;;;;;17.53;39.55;102846.50;5123712;27;20030;-67
2023/03/01 05:13:07;;;;;;;5.10;2.45;;;;;;;17.54;39.28;102840.28;5123354;27;20080;-67
2023/03/01 05:15:33;;;;;;;6.30;2.73;;;;;;;17.53;39.21;102843.88;5123500;27;20031;-66
2023/03/01 05:17:59;;;;;;;5.00;2.40;;;;;;;17.51;39.33;102840.41;5123733;27;20298;-66
2023/03/01 05:20:29;;;;;;;4.53;2.20;;;;;;;17.51;39.17;102837.78;5123662;27;20035;-67
2023/03/01 05:22:59;;;;;;;4.80;2.50;;;;;;;17.52;39.08;102838.66;5123758;27;20031;-68
2023/03/01 05:25:25;;;;;;;4.70;2.25;;;;;;;17.54;39.26;102834.16;5123645;27;20027;-67
2023/03/01 05:27:50;;;;;;;3.90;2.03;;;;;;;17.56;39.10;102832.31;5123581;27;20042;-67
2023/03/01 05:30:17;;;;;;;5.03;2.55;;;;;;;17.53;39.11;102821.91;5123428;27;20029;-67
2023/03/01 05:32:45;;;;;;;5.68;2.22;;;;;;;17.49;39.30;102818.56;5123203;27;20035;-67
2023/03/01 05:35:16;;;;;;;4.97;2.10;;;;;;;17.55;39.10;102820.06;5123233;27;20083;-67
2023/03/01 05:37:47;;;;;;;4.22;2.00;;;;;;;17.54;38.98;102816.56;5123128;27;20023;-67
2023/03/01 05:40:15;;;;;;;4.00;2.00;;;;;;;17.51;38.56;102808.78;5122832;27;20468;-68
2023/03/01 05:42:53;;;;;;;7.25;2.40;;;;;;;17.55;38.42;102810.38;5122584;27;20027;-68
2023/03/01 05:45:19;;;;;;;3.65;1.58;;;;;;;17.58;38.06;102801.47;5121961;27;20027;-67
2023/03/01 05:47:46;;;;;;;4.70;1.77;;;;;;;17.60;38.28;102799.59;5122510;27;20031;-68
2023/03/01 05:50:20;;;;;;;4.57;1.70;;;;;;;17.64;38.24;102797.66;5103962;27;20076;-67
2023/03/01 05:53:22;;;;;;;3.58;1.67;;;;;;;17.68;38.36;102804.50;5122791;27;20390;-67
2023/03/01 05:55:49;;;;;;;5.35;1.90;;;;;;;17.74;38.18;102805.06;5087331;27;20043;-67
2023/03/01 05:58:17;;;;;;;3.55;1.52;;;;;;;17.79;38.10;102810.13;5122546;27;20130;-67
2023/03/01 06:00:44;;;;;;;2.97;1.58;;;;;;;17.82;38.27;102804.69;5122560;27;20035;-68
2023/03/01 06:03:12;;;;;;;3.80;1.70;;;;;;;17.84;37.85;102805.47;5122461;27;20034;-67
2023/03/01 06:05:39;;;;;;;4.20;1.73;;;;;;;17.86;37.88;102800.94;5122090;27;20778;-68
2023/03/01 06:08:04;;;;;;;4.63;1.85;;;;;;;17.88;37.92;102801.78;5122696;27;20038;-69
2023/03/01 06:10:29;;;;;;;5.25;2.10;;;;;;;17.89;37.96;102798.19;5122184;27;20038;-68
2023/03/01 06:12:55;;;;;;;4.88;1.98;;;;;;;17.94;38.00;102798.84;5122575;27;20027;-67
2023/03/01 06:15:22;;;;;;;4.57;1.60;;;;;;;17.93;37.96;102791.00;5121601;27;20383;-68
2023/03/01 06:17:48;;;;;;;4.30;1.80;;;;;;;17.97;37.88;102791.69;5121459;27;20407;-67
2023/03/01 06:20:19;;;;;;;5.32;1.85;;;;;;;17.96;38.03;102793.50;5121499;27;20035;-65
2023/03/01 06:22:46;;;;;;;3.53;1.70;;;;;;;17.97;38.16;102797.81;5122157;27;20027;-67
2023/03/01 06:25:13;;;;;;;3.85;1.55;;;;;;;17.99;37.95;102797.75;5121736;27;20068;-67
2023/03/01 06:27:38;;;;;;;3.70;1.70;;;;;;;18.00;37.97;102796.81;5121452;27;20035;-67
2023/03/01 06:30:04;;;;;;;3.67;1.58;;;;;;;18.03;37.55;102804.59;5121608;27;20023;-67
2023/03/01 06:32:30;;;;;;;3.38;1.58;;;;;;;18.01;37.87;102801.16;5121875;27;20087;-67
2023/03/01 06:34:56;;;;;;;4.07;1.80;;;;;;;18.04;37.78;102806.28;5121321;27;20035;-67
2023/03/01 06:37:21;;;;;;;4.72;1.67;;;;;;;18.02;38.08;102811.63;5121179;27;20038;-67
2023/03/01 06:39:46;;;;;;;4.45;1.75;;;;;;;18.03;38.01;102807.22;5121225;27;20095;-67
2023/03/01 06:42:12;;;;;;;4.50;1.73;;;;;;;18.08;37.88;102815.75;5121359;27;20482;-67
2023/03/01 06:44:38;;;;;;;4.20;1.77;;;;;;;18.05;38.06;102805.34;5121313;27;20112;-65
2023/03/01 06:47:04;;;;;;;4.60;2.00;;;;;;;18.06;37.88;102809.72;5121129;27;20027;-66
2023/03/01 06:49:30;;;;;;;3.90;1.88;;;;;;;18.08;38.09;102808.69;5121213;28;20050;-67
2023/03/01 06:51:55;;;;;;;3.83;1.83;;;;;;;18.08;38.01;102808.69;5121818;28;20118;-68
2023/03/01 06:54:22;;;;;;;4.57;1.90;;;;;;;18.08;38.18;102806.06;5121504;28;20023;-67
2023/03/01 06:56:48;;;;;;;3.90;1.80;;;;;;;18.06;37.91;102802.66;5121468;27;20059;-69
2023/03/01 06:59:14;;;;;;;4.63;1.90;;;;;;;18.05;38.10;102802.72;5121526;27;20046;-67
2023/03/01 07:01:39;;;;;;;3.50;1.70;;;;;;;18.04;38.11;102808.91;5124463;27;20035;-67
2023/03/01 07:04:05;;;;;;;3.85;1.60;;;;;;;18.06;37.91;102800.00;5125492;27;20523;-68
2023/03/01 07:06:30;;;;;;;3.95;1.63;;;;;;;18.07;38.03;102800.84;5125523;27;20031;-68
2023/03/01 07:08:55;;;;;;;3.78;1.85;;;;;;;18.09;38.20;102802.50;5125719;27;20486;-67
2023/03/01 07:11:20;;;;;;;5.03;1.95;;;;;;;18.09;37.89;102796.38;5125884;27;20126;-68
2023/03/01 07:13:46;;;;;;;3.03;1.42;;;;;;;18.05;37.82;102786.88;5106971;27;20498;-69
2023/03/01 07:16:11;;;;;;;3.47;1.70;;;;;;;18.09;37.93;102801.66;5125711;27;20096;-68
2023/03/01 07:18:36;;;;;;;4.38;1.85;;;;;;;18.07;38.15;102803.50;5125659;27;20391;-68
2023/03/01 07:21:07;;;;;;;4.10;1.98;;;;;;;18.08;38.01;102805.22;5125511;27;20031;-69
2023/03/01 07:23:33;;;;;;;4.95;1.95;;;;;;;18.10;38.03;102813.88;5125405;27;20027;-69
2023/03/01 07:25:58;;;;;;;5.20;2.08;;;;;;;18.11;38.07;102820.88;5125675;27;20858;-68
2023/03/01 07:28:24;;;;;;;4.72;1.73;;;;;;;18.07;37.88;102822.84;5106636;27;20390;-70
2023/03/01 07:30:49;;;;;;;4.90;2.20;;;;;;;18.08;37.55;102813.97;5125438;27;20027;-67
2023/03/01 07:33:14;;;;;;;5.00;1.92;;;;;;;18.09;37.39;102820.97;5125305;27;20038;-67
2023/03/01 07:35:40;;;;;;;4.28;2.10;;;;;;;18.10;37.42;102816.53;5125031;27;20030;-68
2023/03/01 07:38:05;;;;;;;14.43;2.63;;;;;;;18.11;37.72;102816.47;5125512;27;20034;-69
2023/03/01 07:40:30;;;;;;;4.47;2.00;;;;;;;18.10;37.58;102814.75;5125485;27;20046;-68
2023/03/01 07:42:57;;;;;;;6.63;2.20;;;;;;;18.07;37.80;102812.28;5125687;27;20027;-67
2023/03/01 07:45:23;;;;;;;7.32;2.15;;;;;;;18.06;38.01;102810.56;5124681;27;20023;-67
2023/03/01 07:47:50;;;;;;;4.57;2.00;;;;;;;18.10;38.48;102822.69;5124993;27;20280;-67
2023/03/01 07:50:16;;;;;;;5.78;1.98;;;;;;;18.06;38.66;102812.34;5124802;27;20023;-68
2023/03/01 07:52:41;;;;;;;6.22;2.22;;;;;;;18.10;38.30;102817.41;5125293;27;20096;-67
2023/03/01 07:55:07;;;;;;;4.35;1.88;;;;;;;18.15;38.62;102821.56;5124981;27;20099;-68
2023/03/01 07:57:32;;;;;;;5.90;2.03;;;;;;;18.11;38.54;102811.19;5125364;27;20585;-67
2023/03/01 07:59:57;;;;;;;6.45;2.20;;;;;;;18.13;38.81;102811.97;5124798;27;20068;-68
2023/03/01 08:02:23;;;;;;;6.43;2.00;;;;;;;18.17;38.72;102817.94;5124949;27;20035;-70
2023/03/01 08:04:48;;;;;;;7.28;2.15;;;;;;;18.19;39.09;102820.50;5124777;27;20039;-69
2023/03/01 08:07:13;;;;;;;4.28;1.92;;;;;;;18.21;39.04;102813.34;5124671;27;20049;-68
2023/03/01 08:09:39;;;;;;;4.70;2.08;;;;;;;18.20;39.38;102809.00;5124540;27;21208;-68
2023/03/01 08:12:05;;;;;;;4.35;2.20;;;;;;;18.23;39.54;102816.75;5124518;27;20467;-69
2023/03/01 08:14:31;;;;;;;4.40;2.00;;;;;;;18.25;39.37;102814.91;5106287;27;20064;-67
2023/03/01 08:16:57;;;;;;;5.35;1.85;;;;;;;18.24;39.80;102810.56;5123431;27;20047;-69
2023/03/01 08:19:36;;;;;;;4.55;1.60;;;;;;;18.26;39.71;102816.63;5118812;27;20467;-70
2023/03/01 08:22:02;;;;;;;4.70;2.05;;;;;;;18.27;39.76;102815.69;5111854;27;20256;-70
2023/03/01 08:24:27;;;;;;;4.95;2.03;;;;;;;18.28;39.93;102815.63;5098820;28;20062;-69
2023/03/01 08:26:53;;;;;;;6.70;2.00;;;;;;;18.30;39.84;102813.75;5110874;28;20090;-68
2023/03/01 08:29:19;;;;;;;4.63;1.90;;;;;;;18.29;39.91;102808.53;5107318;28;20035;-68
2023/03/01 08:31:44;;;;;;;4.85;2.10;;;;;;;18.29;39.84;102805.91;5119368;27;20111;-68
2023/03/01 08:34:14;;;;;;;6.35;1.90;;;;;;;18.33;39.79;102804.81;5118682;27;20030;-67
2023/03/01 08:36:42;;;;;;;6.30;1.90;;;;;;;18.34;39.90;102810.94;5098207;28;20036;-68
2023/03/01 08:39:10;;;;;;;6.70;1.85;;;;;;;18.34;40.07;102803.03;5098289;28;20085;-70
2023/03/01 08:41:36;;;;;;;4.25;1.83;;;;;;;18.37;39.74;102806.34;5114383;28;20563;-69
2023/03/01 08:44:01;;;;;;;4.78;1.88;;;;;;;18.37;39.78;102802.88;5102869;28;20042;-69
2023/03/01 08:46:29;;;;;;;5.75;1.95;;;;;;;18.39;39.86;102803.63;5116196;27;20134;-69
2023/03/01 08:48:54;;;;;;;6.22;2.10;;;;;;;18.37;39.82;102784.41;5119123;27;20027;-69
2023/03/01 08:51:20;;;;;;;5.53;1.85;;;;;;;18.40;39.79;102787.72;5118600;27;20061;-70
2023/03/01 08:53:46;;;;;;;4.65;1.73;;;;;;;18.39;39.69;102780.75;5098636;28;20023;-69
2023/03/01 08:56:12;;;;;;;6.65;1.90;;;;;;;18.39;39.62;102786.03;5098203;27;20032;-68
2023/03/01 08:58:39;;;;;;;4.80;1.90;;;;;;;18.40;39.75;102785.06;5107402;28;20072;-66
2023/03/01 09:01:13;;;;;;;4.80;1.88;;;;;;;18.39;39.64;102783.41;5108648;28;20039;-70
2023/03/01 09:03:38;;;;;;;5.53;1.98;;;;;;;18.43;39.36;102789.34;5103631;27;20034;-69
2023/03/01 09:06:07;;;;;;;3.80;1.73;;;;;;;18.43;39.69;102786.72;5117003;28;20047;-69
2023/03/01 09:08:35;;;;;;;5.15;2.60;;;;;;;18.44;39.34;102781.38;5117590;28;20891;-69
2023/03/01 09:11:05;;;;;;;5.10;2.10;;;;;;;18.38;39.59;102771.13;5097397;28;20089;-69
2023/03/01 09:13:33;;;;;;;6.55;2.15;;;;;;;18.41;39.48;102773.59;5106542;27;20044;-70
2023/03/01 09:16:01;;;;;;;6.03;1.88;;;;;;;18.41;39.23;102767.47;5103665;28;20035;-69
2023/03/01 09:18:39;;;;;;;4.95;1.70;;;;;;;18.43;39.71;102769.09;5109034;27;20464;-68
2023/03/01 09:21:13;;;;;;;4.82;1.92;;;;;;;18.42;39.63;102762.13;5117987;27;20031;-70
2023/03/01 09:23:43;;;;;;;;;;;;;;;18.47;39.49;102760.09;5118164;27;20047;-70
2023/03/01 09:26:10;;;;;;;4.03;1.70;;;;;;;18.47;39.54;102760.09;5117430;28;20667;-69
2023/03/01 09:28:37;;;;;;;4.20;1.80;;;;;;;18.45;39.28;102759.31;5097775;27;20031;-68
2023/03/01 09:31:03;;;;;;;5.55;1.90;;;;;;;18.45;39.35;102759.31;5098490;28;20039;-70
2023/03/01 09:33:30;;;;;;;5.90;1.80;;;;;;;18.45;39.68;102753.16;5089968;28;20977;-69
2023/03/01 09:36:00;;;;;;;5.78;2.20;;;;;;;18.46;39.42;102746.97;5083681;28;20063;-69
2023/03/01 09:38:25;;;;;;;4.00;1.63;;;;;;;18.49;39.68;102754.72;5093444;28;20046;-69
2023/03/01 09:40:51;;;;;;;5.00;1.90;;;;;;;18.49;39.86;102752.91;5103427;28;20035;-70
2023/03/01 09:44:06;;;;;;;7.00;1.90;;;;;;;18.48;39.95;102747.72;5090619;28;20498;-70
2023/03/01 09:46:40;;;;;;;4.65;1.73;;;;;;;18.51;39.89;102744.06;5083467;28;20044;-67
2023/03/01 09:49:14;;;;;;;4.55;1.92;;;;;;;18.49;39.84;102739.72;5092525;28;20066;-70
2023/03/01 09:51:39;;;;;;;4.57;1.63;;;;;;;18.52;39.83;102738.72;5094925;28;20044;-69
2023/03/01 09:54:08;;;;;;;5.25;1.70;;;;;;;18.54;39.89;102742.13;5099016;28;20093;-68
2023/03/01 09:56:39;;;;;;;3.85;1.60;;;;;;;18.57;40.01;102734.03;5099396;28;20036;-68
2023/03/01 09:59:13;;;;;;;4.80;2.00;;;;;;;18.53;40.12;102726.34;5083288;28;20067;-68
2023/03/01 10:01:46;;;;;;;3.58;1.67;;;;;;;18.55;40.13;102725.34;5099095;28;20074;-66
2023/03/01 10:04:42;;;;;;;4.72;1.83;;;;;;;18.57;40.12;102723.47;5083282;28;20441;-68
2023/03/01 10:07:21;;;;;;;5.80;1.70;;;;;;;18.59;40.22;102721.59;5094770;28;20060;-68
2023/03/01 10:09:47;;;;;;;4.45;1.60;;;;;;;18.57;40.38;102714.72;5083215;28;20036;-68
2023/03/01 10:12:17;;;;;;;5.57;1.83;;;;;;;18.60;40.65;102709.28;5094836;28;20035;-70
2023/03/01 10:14:48;;;;;;;3.40;1.30;;;;;;;18.62;40.46;102712.66;5103014;28;20998;-69
2023/03/01 10:17:35;;;;;;;5.10;1.83;;;;;;;18.62;40.36;102710.88;5086944;28;20036;-68
2023/03/01 10:20:21;;;;;;;6.20;1.70;;;;;;;18.66;40.90;102701.84;5087614;28;20242;-67
2023/03/01 10:22:50;;;;;;;5.05;1.80;;;;;;;18.75;41.49;102702.28;5092098;28;20039;-69
2023/03/01 10:25:22;;;;;;;5.40;2.00;;;;;;;18.72;41.59;102690.09;5087420;28;20031;-67
2023/03/01 10:27:52;;;;;;;6.05;2.17;;;;;;;18.75;41.81;102679.38;5084778;28;20481;-69
2023/03/01 10:30:41;;;;;;;5.78;2.13;;;;;;;18.77;40.77;102684.56;5090559;28;20415;-68
2023/03/01 10:33:21;;;;;;;4.95;2.10;;;;;;;18.79;41.33;102688.00;5099945;28;20549;-69
2023/03/01 10:35:47;;;;;;;4.57;1.98;;;;;;;18.81;41.74;102680.81;5087030;28;20926;-69
2023/03/01 10:38:14;;;;;;;6.18;2.03;;;;;;;18.82;41.90;102691.31;5102082;28;20139;-71
2023/03/01 10:41:05;;;;;;;4.55;1.77;;;;;;;18.80;41.85;102685.25;5100947;28;20438;-66
2023/03/01 10:43:49;;;;;;;5.40;1.90;;;;;;;18.82;42.01;102678.09;5102150;28;20107;-69
2023/03/01 10:46:31;;;;;;;4.55;1.85;;;;;;;18.85;41.98;102682.41;5096477;28;20040;-67
2023/03/01 10:49:13;;;;;;;5.07;2.13;;;;;;;18.87;42.54;102680.53;5087116;28;20553;-65
2023/03/01 10:51:41;;;;;;;6.10;1.90;;;;;;;18.87;42.23;102671.72;5095884;28;20249;-66
2023/03/01 10:54:17;;;;;;;4.80;1.92;;;;;;;18.85;42.46;102677.13;5094097;28;20040;-66
2023/03/01 10:56:48;;;;;;;4.38;1.98;;;;;;;18.89;42.51;102681.28;5081737;28;20039;-67
2023/03/01 10:59:26;;;;;;;4.55;1.80;;;;;;;18.92;42.50;102677.63;5101426;28;20115;-67
2023/03/01 11:02:04;;;;;;;4.20;1.90;;;;;;;18.94;42.56;102683.66;5098761;28;20074;-71
2023/03/01 11:04:29;;;;;;;5.90;1.80;;;;;;;18.98;42.20;102680.78;5090806;28;20111;-68
2023/03/01 11:07:00;;;;;;;4.50;1.85;;;;;;;18.98;41.92;102679.94;5090110;28;20038;-68
2023/03/01 11:09:28;;;;;;;3.75;1.77;;;;;;;18.99;41.64;102676.31;5080478;28;20071;-70
2023/03/01 11:11:56;;;;;;;4.57;1.88;;;;;;;19.00;41.64;102667.47;5089257;28;20082;-69
2023/03/01 11:14:24;;;;;;;7.32;1.90;;;;;;;19.00;41.63;102668.31;5097604;28;20023;-69
2023/03/01 11:16:59;;;;;;;5.63;2.20;;;;;;;18.95;41.49;102673.00;5098575;28;20114;-68
2023/03/01 11:19:25;;;;;;;5.05;2.05;;;;;;;19.03;41.97;102675.22;5087571;28;20047;-68
2023/03/01 11:21:59;;;;;;;5.18;2.10;;;;;;;18.96;42.36;102668.56;5081671;28;20046;-69
2023/03/01 11:24:45;;;;;;;5.53;1.83;;;;;;;18.99;42.29;102677.19;5082959;28;20043;-68
2023/03/01 11:27:22;;;;;;;8.98;2.25;;;;;;;19.05;41.95;102672.50;5087230;28;20047;-67
2023/03/01 11:30:01;;;;;;;9.32;2.22;;;;;;;19.00;42.42;102665.69;5089392;28;20105;-68
2023/03/01 11:32:31;;;;;;;5.00;2.20;;;;;;;19.05;42.47;102668.06;5091754;28;20043;-69